createdAt,value
2022-08-01T00:00:52.837Z,100054.53
2022-08-01T00:03:20.520Z,100056.72
2022-08-01T00:05:49.683Z,100061.69
2022-08-01T00:08:17.226Z,100064.72
2022-08-01T00:10:46.191Z,100055.13
2022-08-01T00:13:13.911Z,100048.06
2022-08-01T00:15:41.544Z,100053.28
2022-08-01T00:18:19.342Z,100061.16
2022-08-01T00:20:46.953Z,100063.03
2022-08-01T00:23:14.563Z,100066.31
2022-08-01T00:25:42.176Z,100056.22
2022-08-01T00:28:11.120Z,100055.72
2022-08-01T00:30:38.802Z,100056.78
2022-08-01T00:33:08.504Z,100048.38
2022-08-01T00:35:36.526Z,100050.03
2022-08-01T00:38:04.562Z,100050.63
2022-08-01T00:40:32.939Z,100044.88
2022-08-01T00:43:00.605Z,100041.66
2022-08-01T00:45:29.681Z,100046.25
2022-08-01T00:47:57.314Z,100046.00
2022-08-01T00:50:25.593Z,100050.94
2022-08-01T00:52:53.558Z,100055.03
2022-08-01T00:55:22.179Z,100051.75
2022-08-01T00:58:04.861Z,100058.59
2022-08-01T01:00:53.440Z,100062.16
2022-08-01T01:03:43.543Z,100062.72
2022-08-01T01:06:29.014Z,100062.16
2022-08-01T01:09:08.936Z,100060.78
2022-08-01T01:11:44.929Z,100067.63
2022-08-01T01:14:23.704Z,100072.28
2022-08-01T01:16:55.215Z,100070.09
2022-08-01T01:19:26.991Z,100074.16
2022-08-01T01:22:11.511Z,100072.81
2022-08-01T01:24:48.661Z,100066.78
2022-08-01T01:27:26.185Z,100076.09
2022-08-01T01:30:00.460Z,100073.34
2022-08-01T01:32:35.363Z,100071.16
2022-08-01T01:35:08.695Z,100074.19
2022-08-01T01:37:40.603Z,100071.19
2022-08-01T01:40:11.738Z,100073.91
2022-08-01T01:42:41.042Z,100079.94
2022-08-01T01:45:11.492Z,100079.38
2022-08-01T01:47:41.845Z,100073.63
2022-08-01T01:50:12.810Z,100083.75
2022-08-01T01:52:43.142Z,100076.94
2022-08-01T01:55:12.484Z,100080.47
2022-08-01T01:57:42.369Z,100081.81
2022-08-01T02:00:13.809Z,100076.09
2022-08-01T02:02:43.125Z,100077.47
2022-08-01T02:05:13.530Z,100087.00
2022-08-01T02:07:43.679Z,100089.47
2022-08-01T02:10:12.993Z,100090.81
2022-08-01T02:12:47.056Z,100083.66
2022-08-01T02:15:17.751Z,100093.78
2022-08-01T02:17:51.785Z,100097.94
2022-08-01T02:20:19.763Z,100095.22
2022-08-01T02:22:50.369Z,100108.03
2022-08-01T02:25:24.640Z,100098.78
2022-08-01T02:27:57.866Z,100088.94
2022-08-01T02:30:27.947Z,100096.59
2022-08-01T02:33:03.844Z,100094.41
2022-08-01T02:36:30.243Z,100093.34
2022-08-01T02:38:29.172Z,100090.56
2022-08-01T02:41:01.774Z,100088.94
2022-08-01T02:43:32.188Z,100087.03
2022-08-01T02:46:04.553Z,100094.41
2022-08-01T02:48:35.786Z,100081.84
2022-08-01T02:51:06.188Z,100091.13
2022-08-01T02:53:44.029Z,100097.16
2022-08-01T02:56:15.420Z,100083.75
2022-08-01T02:58:44.697Z,100089.22
2022-08-01T03:01:17.019Z,100085.66
2022-08-01T03:03:48.229Z,100087.84
2022-08-01T03:06:17.603Z,100085.94
2022-08-01T03:08:46.908Z,100089.47
2022-08-01T03:11:15.222Z,100099.56
2022-08-01T03:13:45.790Z,100086.75
2022-08-01T03:16:15.405Z,100087.53
2022-08-01T03:18:45.888Z,100090.81
2022-08-01T03:21:15.491Z,100096.84
2022-08-01T03:23:45.148Z,100093.28
2022-08-01T03:26:13.250Z,100092.22
2022-08-01T03:28:43.575Z,100097.41
2022-08-01T03:31:14.798Z,100095.78
2022-08-01T03:33:43.891Z,100093.84
2022-08-01T03:36:25.858Z,100091.41
2022-08-01T03:38:57.671Z,100090.59
2022-08-01T03:41:28.656Z,100093.84
2022-08-01T03:44:00.692Z,100094.66
2022-08-01T03:46:32.024Z,100103.97
2022-08-01T03:49:06.386Z,100097.44
2022-08-01T03:51:35.409Z,100092.25
2022-08-01T03:54:03.853Z,100088.41
2022-08-01T03:56:32.882Z,100101.50
2022-08-01T03:59:01.715Z,100100.97
2022-08-01T04:01:32.048Z,100097.97
2022-08-01T04:04:02.461Z,100091.13
2022-08-01T04:06:31.501Z,100097.69
2022-08-01T04:08:59.431Z,100099.06
2022-08-01T04:11:29.782Z,100094.41
2022-08-01T04:13:59.019Z,100092.50
2022-08-01T04:18:54.677Z,100102.03
2022-08-01T04:21:28.555Z,100110.22
2022-08-01T04:23:59.947Z,100106.69
2022-08-01T04:26:29.165Z,100102.31
2022-08-01T04:28:57.684Z,100103.13
2022-08-01T04:31:27.967Z,100111.63
2022-08-01T04:33:57.747Z,100112.72
2022-08-01T04:36:29.007Z,100110.25
2022-08-01T04:39:01.483Z,100109.16
2022-08-01T04:41:31.801Z,100111.63
2022-08-01T04:44:00.323Z,100104.22
2022-08-01T04:46:30.567Z,100113.53
2022-08-01T04:48:59.431Z,100103.72
2022-08-01T04:51:28.708Z,100106.44
2022-08-01T04:53:57.458Z,100111.59
2022-08-01T04:56:25.059Z,100107.53
2022-08-01T04:59:19.580Z,100114.38
2022-08-01T05:01:50.754Z,100117.66
2022-08-01T05:04:18.452Z,100116.28
2022-08-01T05:06:47.419Z,100122.28
2022-08-01T05:09:15.011Z,100120.91
2022-08-01T05:11:42.586Z,100132.69
2022-08-01T05:14:10.231Z,100127.50
2022-08-01T05:16:37.893Z,100130.22
2022-08-01T05:19:05.567Z,100129.97
2022-08-01T05:21:33.194Z,100128.03
2022-08-01T05:24:02.162Z,100138.41
2022-08-01T05:26:29.980Z,100143.06
2022-08-01T05:28:59.530Z,100143.91
2022-08-01T05:31:27.572Z,100141.72
2022-08-01T05:33:55.263Z,100144.16
2022-08-01T05:36:22.981Z,100148.28
2022-08-01T05:38:50.772Z,100148.81
2022-08-01T05:41:19.741Z,100152.09
2022-08-01T05:43:47.393Z,100155.09
2022-08-01T05:46:14.963Z,100148.28
2022-08-01T05:48:42.776Z,100144.44
2022-08-01T05:51:10.712Z,100147.97
2022-08-01T05:53:38.459Z,100155.66
2022-08-01T05:56:06.826Z,100152.94
2022-08-01T05:58:35.832Z,100141.44
2022-08-01T06:01:03.470Z,100143.09
2022-08-01T06:03:32.114Z,100140.06
2022-08-01T06:05:59.705Z,100147.41
2022-08-01T06:08:27.323Z,100149.63
2022-08-01T06:10:55.060Z,100147.97
2022-08-01T06:13:22.697Z,100155.88
2022-08-01T06:15:52.052Z,100156.16
2022-08-01T06:18:20.095Z,100157.47
2022-08-01T06:20:47.815Z,100161.06
2022-08-01T06:23:31.601Z,100158.94
2022-08-01T06:26:00.550Z,100176.19
2022-08-01T06:28:28.207Z,100178.63
2022-08-01T06:30:57.115Z,100176.72
2022-08-01T06:33:25.051Z,100170.97
2022-08-01T06:35:52.917Z,100175.59
2022-08-01T06:38:20.810Z,100169.25
2022-08-01T06:40:48.797Z,100169.00
2022-08-01T06:43:16.748Z,100175.25
2022-08-01T06:45:44.516Z,100179.66
2022-08-01T06:48:13.549Z,100174.41
2022-08-01T06:50:41.385Z,100179.50
2022-08-01T06:53:09.035Z,100173.97
2022-08-01T06:55:36.737Z,100178.28
2022-08-01T06:58:04.826Z,100172.97
2022-08-01T07:00:32.833Z,100177.72
2022-08-01T07:03:00.847Z,100183.84
2022-08-01T07:05:31.961Z,100182.97
2022-08-01T07:07:59.881Z,100186.78
2022-08-01T07:10:27.474Z,100181.06
2022-08-01T07:12:55.105Z,100171.69
2022-08-01T07:15:27.259Z,100175.53
2022-08-01T07:17:54.939Z,100171.94
2022-08-01T07:20:22.557Z,100166.88
2022-08-01T07:22:52.221Z,100172.09
2022-08-01T07:25:20.451Z,100167.09
2022-08-01T07:27:48.372Z,100170.78
2022-08-01T07:30:15.982Z,100166.69
2022-08-01T07:32:43.570Z,100160.06
2022-08-01T07:35:11.634Z,100158.06
2022-08-01T07:37:48.105Z,100158.44
2022-08-01T07:40:19.243Z,100145.50
2022-08-01T07:42:47.233Z,100145.16
2022-08-01T07:45:15.532Z,100150.06
2022-08-01T07:47:43.296Z,100150.19
2022-08-01T07:50:11.211Z,100151.94
2022-08-01T07:52:38.857Z,100147.19
2022-08-01T07:55:07.863Z,100145.13
2022-08-01T07:57:37.055Z,100154.31
2022-08-01T08:00:06.499Z,100152.84
2022-08-01T08:02:34.767Z,100150.66
2022-08-01T08:05:02.449Z,100151.88
2022-08-01T08:07:30.040Z,100145.97
2022-08-01T08:09:57.827Z,100150.06
2022-08-01T08:12:28.831Z,100149.91
2022-08-01T08:14:59.982Z,100154.59
2022-08-01T08:17:28.289Z,100149.75
2022-08-01T08:19:56.235Z,100157.25
2022-08-01T08:22:23.853Z,100149.50
2022-08-01T08:24:51.418Z,100157.72
2022-08-01T08:27:19.179Z,100158.72
2022-08-01T08:29:47.218Z,100154.59
2022-08-01T08:32:16.175Z,100148.38
2022-08-01T08:34:44.003Z,100159.78
2022-08-01T08:37:12.307Z,100161.50
2022-08-01T08:39:41.302Z,100158.06
2022-08-01T08:42:10.541Z,100165.00
2022-08-01T08:44:39.686Z,100167.44
2022-08-01T08:47:19.271Z,100168.00
2022-08-01T08:49:51.820Z,100169.22
2022-08-01T08:52:21.290Z,100167.25
2022-08-01T08:54:50.065Z,100168.88
2022-08-01T08:57:20.340Z,100172.69
2022-08-01T08:59:48.395Z,100176.16
2022-08-01T09:02:16.034Z,100180.97
2022-08-01T09:04:44.436Z,100167.38
2022-08-01T09:07:14.990Z,100162.94
2022-08-01T09:09:42.558Z,100170.75
2022-08-01T09:12:12.122Z,100170.09
2022-08-01T09:14:46.720Z,100176.22
2022-08-01T09:17:14.381Z,100164.38
2022-08-01T09:19:48.492Z,100174.81
2022-08-01T09:22:19.734Z,100172.50
2022-08-01T09:25:01.566Z,100164.47
2022-08-01T09:27:29.713Z,100175.41
2022-08-01T09:30:11.767Z,100178.53
2022-08-01T09:32:56.356Z,100180.28
2022-08-01T09:35:29.862Z,100172.28
2022-08-01T09:38:17.902Z,100173.53
2022-08-01T09:40:58.160Z,100176.41
2022-08-01T09:43:27.862Z,100173.38
2022-08-01T09:45:57.751Z,100166.47
2022-08-01T09:48:27.805Z,100169.97
2022-08-01T09:51:04.113Z,100165.25
2022-08-01T09:53:53.523Z,100163.59
2022-08-01T09:56:24.174Z,100166.31
2022-08-01T09:58:59.231Z,100169.06
2022-08-01T10:01:36.932Z,100171.09
2022-08-01T10:04:11.991Z,100165.53
2022-08-01T10:06:41.780Z,100159.84
2022-08-01T10:09:11.257Z,100167.97
2022-08-01T10:11:40.053Z,100158.22
2022-08-01T10:14:18.120Z,100160.16
2022-08-01T10:16:53.697Z,100155.00
2022-08-01T10:19:28.990Z,100157.34
2022-08-01T10:22:00.241Z,100154.19
2022-08-01T10:24:33.558Z,100152.09
2022-08-01T10:27:08.352Z,100149.41
2022-08-01T10:29:46.148Z,100147.03
2022-08-01T10:32:14.798Z,100152.13
2022-08-01T10:34:45.044Z,100147.94
2022-08-01T10:37:15.795Z,100149.94
2022-08-01T10:39:46.906Z,100136.31
2022-08-01T10:42:15.901Z,100133.63
2022-08-01T10:44:47.148Z,100139.16
2022-08-01T10:47:23.298Z,100132.63
2022-08-01T10:50:03.827Z,100136.06
2022-08-01T10:52:34.515Z,100131.44
2022-08-01T10:55:11.059Z,100117.41
2022-08-01T10:57:52.665Z,100117.16
2022-08-01T11:00:22.752Z,100124.72
2022-08-01T11:03:01.592Z,100115.84
2022-08-01T11:05:33.083Z,100120.78
2022-08-01T11:08:05.085Z,100115.91
2022-08-01T11:10:39.907Z,100117.75
2022-08-01T11:13:09.560Z,100119.25
2022-08-01T11:15:37.482Z,100116.63
2022-08-01T11:18:37.705Z,100109.63
2022-08-01T11:21:58.499Z,100113.28
2022-08-01T11:23:54.487Z,100109.50
2022-08-01T11:26:29.342Z,100100.78
2022-08-01T11:29:20.919Z,100109.00
2022-08-01T11:31:49.803Z,100114.31
2022-08-01T11:34:17.638Z,100112.81
2022-08-01T11:37:01.412Z,100102.28
2022-08-01T11:39:36.821Z,100109.75
2022-08-01T11:42:21.879Z,100096.50
2022-08-01T11:44:51.223Z,100089.50
2022-08-01T11:47:19.501Z,100094.53
2022-08-01T11:49:56.032Z,100092.38
2022-08-01T11:52:29.574Z,100092.75
2022-08-01T11:54:59.486Z,100086.16
2022-08-01T11:57:34.709Z,100089.03
2022-08-01T12:00:08.838Z,100073.00
2022-08-01T12:02:37.309Z,100068.88
2022-08-01T12:05:08.409Z,100079.22
2022-08-01T12:07:38.245Z,100073.78
2022-08-01T12:10:10.098Z,100068.81
2022-08-01T12:12:45.233Z,100068.63
2022-08-01T12:15:13.483Z,100062.66
2022-08-01T12:17:47.109Z,100058.84
2022-08-01T12:20:31.000Z,100062.91
2022-08-01T12:23:01.550Z,100065.50
2022-08-01T12:25:29.911Z,100064.78
2022-08-01T12:28:02.129Z,100061.19
2022-08-01T12:30:31.652Z,100063.13
2022-08-01T12:32:59.915Z,100054.16
2022-08-01T12:35:30.040Z,100056.72
2022-08-01T12:38:00.197Z,100047.31
2022-08-01T12:40:30.184Z,100039.25
2022-08-01T12:43:01.497Z,100050.66
2022-08-01T12:45:34.480Z,100056.13
2022-08-01T12:48:03.046Z,100047.31
2022-08-01T12:50:32.688Z,100049.00
2022-08-01T12:53:03.243Z,100059.81
2022-08-01T12:55:33.748Z,100052.81
2022-08-01T12:58:11.516Z,100048.81
2022-08-01T13:00:45.218Z,100049.44
2022-08-01T13:03:15.859Z,100043.28
2022-08-01T13:05:45.278Z,100039.84
2022-08-01T13:08:14.385Z,100036.09
2022-08-01T13:10:43.141Z,100043.03
2022-08-01T13:13:27.790Z,100044.56
2022-08-01T13:16:07.077Z,100044.22
2022-08-01T13:18:37.563Z,100046.53
2022-08-01T13:21:13.217Z,100050.22
2022-08-01T13:24:02.914Z,100045.41
2022-08-01T13:26:43.070Z,100045.81
2022-08-01T13:29:13.637Z,100047.16
2022-08-01T13:31:43.105Z,100050.44
2022-08-01T13:34:12.548Z,100053.03
2022-08-01T13:36:46.831Z,100045.06
2022-08-01T13:39:34.349Z,100043.78
2022-08-01T13:42:01.891Z,100054.84
2022-08-01T13:44:30.941Z,100049.31
2022-08-01T13:46:58.564Z,100049.78
2022-08-01T13:49:26.389Z,100052.88
2022-08-01T13:52:07.380Z,100053.69
2022-08-01T13:54:37.129Z,100054.03
2022-08-01T13:57:05.258Z,100043.13
2022-08-01T13:59:34.211Z,100055.97
2022-08-01T14:02:01.780Z,100050.94
2022-08-01T14:04:29.510Z,100051.13
2022-08-01T14:06:57.170Z,100051.06
2022-08-01T14:09:26.445Z,100049.13
2022-08-01T14:12:00.343Z,100043.41
2022-08-01T14:14:28.192Z,100036.22
2022-08-01T14:16:57.309Z,100040.81
2022-08-01T14:19:38.788Z,100050.75
2022-08-01T14:22:07.903Z,100043.13
2022-08-01T14:24:35.795Z,100043.94
2022-08-01T14:27:03.370Z,100051.72
2022-08-01T14:29:54.818Z,100055.00
2022-08-01T14:32:19.912Z,100058.31
2022-08-01T14:34:52.091Z,100059.59
2022-08-01T14:37:19.915Z,100057.38
2022-08-01T14:39:54.468Z,100055.09
2022-08-01T14:42:22.493Z,100057.06
2022-08-01T14:44:50.267Z,100055.81
2022-08-01T14:47:21.782Z,100057.38
2022-08-01T14:49:51.975Z,100054.09
2022-08-01T14:52:21.488Z,100050.75
2022-08-01T14:54:49.331Z,100054.38
2022-08-01T14:57:20.276Z,100056.56
2022-08-01T14:59:49.567Z,100053.69
2022-08-01T15:02:18.223Z,100053.66
2022-08-01T15:04:46.539Z,100052.34
2022-08-01T15:07:16.469Z,100049.22
2022-08-01T15:09:44.860Z,100045.34
2022-08-01T15:12:12.840Z,100048.13
2022-08-01T15:14:50.211Z,100046.66
2022-08-01T15:17:19.387Z,100043.09
2022-08-01T15:19:48.692Z,100042.28
2022-08-01T15:22:21.442Z,100047.31
2022-08-01T15:24:54.033Z,100044.41
2022-08-01T15:27:25.008Z,100048.75
2022-08-01T15:29:52.702Z,100046.25
2022-08-01T15:32:20.383Z,100044.03
2022-08-01T15:34:48.902Z,100048.91
2022-08-01T15:37:17.890Z,100049.31
2022-08-01T15:39:45.765Z,100053.31
2022-08-01T15:42:19.377Z,100045.16
2022-08-01T15:44:51.230Z,100050.31
2022-08-01T15:47:18.869Z,100052.50
2022-08-01T15:49:46.538Z,100058.00
2022-08-01T15:52:23.291Z,100060.38
2022-08-01T15:54:59.576Z,100063.38
2022-08-01T15:57:27.646Z,100068.94
2022-08-01T15:59:55.235Z,100068.97
2022-08-01T16:02:22.998Z,100072.00
2022-08-01T16:04:50.885Z,100070.22
2022-08-01T16:07:18.465Z,100076.34
2022-08-01T16:09:47.449Z,100072.28
2022-08-01T16:12:15.071Z,100064.81
2022-08-01T16:14:42.702Z,100062.88
2022-08-01T16:17:10.364Z,100057.16
2022-08-01T16:19:37.953Z,100056.34
2022-08-01T16:22:05.888Z,100058.09
2022-08-01T16:24:33.742Z,100058.75
2022-08-01T16:27:02.958Z,100060.06
2022-08-01T16:29:31.890Z,100064.44
2022-08-01T16:32:30.837Z,100055.19
2022-08-01T16:34:47.573Z,100058.59
2022-08-01T16:37:15.414Z,100049.81
2022-08-01T16:39:43.106Z,100057.63
2022-08-01T16:42:12.591Z,100056.38
2022-08-01T16:44:41.444Z,100055.41
2022-08-01T16:47:09.508Z,100052.50
2022-08-01T16:49:37.534Z,100052.50
2022-08-01T16:52:07.148Z,100052.97
2022-08-01T16:54:34.926Z,100050.22
2022-08-01T16:57:07.844Z,100044.81
2022-08-01T16:59:40.940Z,100047.97
2022-08-01T17:02:10.180Z,100045.50
2022-08-01T17:04:37.920Z,100042.19
2022-08-01T17:07:05.776Z,100044.50
2022-08-01T17:09:33.679Z,100043.88
2022-08-01T17:12:01.335Z,100046.69
2022-08-01T17:14:29.707Z,100050.88
2022-08-01T17:16:58.806Z,100045.19
2022-08-01T17:19:32.465Z,100046.38
2022-08-01T17:22:00.751Z,100043.25
2022-08-01T17:24:28.415Z,100055.81
2022-08-01T17:26:56.172Z,100054.38
2022-08-01T17:29:24.378Z,100053.69
2022-08-01T17:31:52.116Z,100062.53
2022-08-01T17:34:21.145Z,100054.91
2022-08-01T17:36:49.344Z,100065.28
2022-08-01T17:39:20.636Z,100065.59
2022-08-01T17:41:50.945Z,100061.13
2022-08-01T17:44:19.916Z,100068.28
2022-08-01T17:46:47.758Z,100056.56
2022-08-01T17:49:15.461Z,100058.50
2022-08-01T17:51:44.503Z,100063.28
2022-08-01T17:54:12.093Z,100066.34
2022-08-01T17:56:44.243Z,100066.53
2022-08-01T17:59:13.429Z,100062.31
2022-08-01T18:01:45.365Z,100067.50
2022-08-01T18:04:14.952Z,100070.38
2022-08-01T18:06:58.173Z,100070.38
2022-08-01T18:09:26.764Z,100074.75
2022-08-01T18:11:54.501Z,100075.31
2022-08-01T18:14:34.762Z,100066.84
2022-08-01T18:17:11.426Z,100079.06
2022-08-01T18:19:39.643Z,100080.28
2022-08-01T18:22:31.201Z,100077.91
2022-08-01T18:24:56.225Z,100078.22
2022-08-01T18:27:23.810Z,100084.34
2022-08-01T18:30:12.130Z,100089.34
2022-08-01T18:32:39.690Z,100084.50
2022-08-01T18:35:13.280Z,100089.72
2022-08-01T18:37:49.295Z,100094.09
2022-08-01T18:40:23.360Z,100103.34
2022-08-01T18:42:50.957Z,100094.94
2022-08-01T18:45:18.885Z,100101.56
2022-08-01T18:47:48.286Z,100109.66
2022-08-01T18:50:16.112Z,100110.22
2022-08-01T18:52:45.006Z,100113.03
2022-08-01T18:55:13.031Z,100110.59
2022-08-01T18:57:42.728Z,100115.50
2022-08-01T19:00:11.491Z,100114.69
2022-08-01T19:02:39.086Z,100114.75
2022-08-01T19:05:07.722Z,100119.16
2022-08-01T19:08:05.490Z,100120.78
2022-08-01T19:10:24.727Z,100126.03
2022-08-01T19:12:52.711Z,100124.00
2022-08-01T19:15:21.742Z,100118.56
2022-08-01T19:17:49.423Z,100133.34
2022-08-01T19:20:17.999Z,100136.69
2022-08-01T19:22:45.624Z,100144.50
2022-08-01T19:25:15.548Z,100151.22
2022-08-01T19:27:48.420Z,100158.91
2022-08-01T19:30:17.375Z,100151.47
2022-08-01T19:32:46.881Z,100153.13
2022-08-01T19:35:16.876Z,100165.88
2022-08-01T19:37:47.607Z,100168.63
2022-08-01T19:40:27.789Z,100163.94
2022-08-01T19:42:57.864Z,100170.53
2022-08-01T19:45:29.551Z,100173.31
2022-08-01T19:47:58.154Z,100179.69
2022-08-01T19:50:26.859Z,100184.84
2022-08-01T19:52:57.239Z,100188.75
2022-08-01T19:55:25.445Z,100186.00
2022-08-01T20:00:43.599Z,100192.34
2022-08-01T20:03:13.017Z,100195.69
2022-08-01T20:05:41.041Z,100187.97
2022-08-01T20:08:09.325Z,100194.13
2022-08-01T20:10:38.720Z,100192.44
2022-08-01T20:13:07.407Z,100191.19
2022-08-01T20:15:35.302Z,100204.44
2022-08-01T20:18:04.357Z,100207.25
2022-08-01T20:20:32.903Z,100214.75
2022-08-01T20:23:03.851Z,100212.69
2022-08-01T20:25:40.158Z,100215.25
2022-08-01T20:28:10.487Z,100218.53
2022-08-01T20:30:39.097Z,100223.50
2022-08-01T20:33:09.677Z,100228.72
2022-08-01T20:35:53.438Z,100225.75
2022-08-01T20:38:24.133Z,100227.13
2022-08-01T20:40:53.266Z,100229.41
2022-08-01T20:43:21.954Z,100235.22
2022-08-01T20:45:50.356Z,100241.25
2022-08-01T20:48:20.243Z,100243.97
2022-08-01T20:51:07.212Z,100251.06
2022-08-01T20:53:40.609Z,100261.75
2022-08-01T20:56:13.040Z,100255.19
2022-08-01T20:58:58.471Z,100259.31
2022-08-01T21:01:29.570Z,100257.94
2022-08-01T21:04:10.780Z,100266.72
2022-08-01T21:06:42.474Z,100268.38
2022-08-01T21:09:14.008Z,100271.66
2022-08-01T21:11:49.711Z,100275.47
2022-08-01T21:14:21.516Z,100270.28
2022-08-01T21:16:58.194Z,100269.47
2022-08-01T21:19:28.850Z,100276.88
2022-08-01T21:22:08.281Z,100274.38
2022-08-01T21:24:46.516Z,100264.50
2022-08-01T21:27:32.714Z,100274.06
2022-08-01T21:30:04.109Z,100275.69
2022-08-01T21:32:34.304Z,100274.31
2022-08-01T21:35:05.601Z,100277.91
2022-08-01T21:37:43.715Z,100280.88
2022-08-01T21:40:11.996Z,100277.59
2022-08-01T21:42:40.495Z,100275.41
2022-08-01T21:45:10.430Z,100278.13
2022-08-01T21:47:38.705Z,100282.50
2022-08-01T21:50:09.385Z,100283.00
2022-08-01T21:52:44.786Z,100291.44
2022-08-01T21:55:22.431Z,100291.75
2022-08-01T21:58:17.721Z,100303.75
2022-08-01T22:00:50.964Z,100297.41
2022-08-01T22:03:25.419Z,100303.97
2022-08-01T22:05:55.201Z,100305.06
2022-08-01T22:08:30.070Z,100296.59
2022-08-01T22:11:00.222Z,100302.34
2022-08-01T22:13:30.011Z,100307.53
2022-08-01T22:15:58.475Z,100316.22
2022-08-01T22:18:27.434Z,100324.69
2022-08-01T22:20:56.906Z,100323.53
2022-08-01T22:23:24.632Z,100320.72
2022-08-01T22:25:53.412Z,100326.44
2022-08-01T22:28:22.175Z,100329.72
2022-08-01T22:30:51.178Z,100324.75
2022-08-01T22:33:19.498Z,100323.06
2022-08-01T22:35:49.140Z,100320.09
2022-08-01T22:38:20.663Z,100316.50
2022-08-01T22:40:51.051Z,100315.94
2022-08-01T22:43:27.308Z,100317.88
2022-08-01T22:46:06.844Z,100320.59
2022-08-01T22:48:41.148Z,100312.38
2022-08-01T22:51:19.360Z,100317.97
2022-08-01T22:53:55.849Z,100323.16
2022-08-01T22:56:23.816Z,100323.91
2022-08-01T22:58:54.147Z,100332.19
2022-08-01T23:01:23.025Z,100332.97
2022-08-01T23:03:51.799Z,100334.34
2022-08-01T23:06:26.687Z,100334.63
2022-08-01T23:08:56.781Z,100335.09
2022-08-01T23:11:24.862Z,100340.81
2022-08-01T23:13:53.737Z,100332.22
2022-08-01T23:16:22.748Z,100335.69
2022-08-01T23:18:50.317Z,100329.88
2022-08-01T23:21:19.521Z,100326.13
2022-08-01T23:23:48.084Z,100331.78
2022-08-01T23:26:18.095Z,100327.88
2022-08-01T23:28:47.086Z,100334.94
2022-08-01T23:31:15.027Z,100333.84
2022-08-01T23:33:42.683Z,100329.19
2022-08-01T23:36:10.290Z,100325.03
2022-08-01T23:38:37.935Z,100340.09
2022-08-01T23:41:14.750Z,100340.38
2022-08-01T23:43:52.107Z,100338.50
2022-08-01T23:46:20.174Z,100342.03
2022-08-01T23:48:47.922Z,100345.47
2022-08-01T23:51:24.413Z,100344.13
2022-08-01T23:53:52.883Z,100343.56
2022-08-01T23:56:25.368Z,100335.13
2022-08-01T23:58:54.609Z,100340.19
